createdAt,value
2023-05-25T00:04:53.547Z,13.52
2023-05-25T00:09:46.876Z,13.47
2023-05-25T00:14:40.237Z,13.50
2023-05-25T00:19:34.057Z,13.50
2023-05-25T00:24:30.142Z,13.58
2023-05-25T00:29:23.485Z,13.71
2023-05-25T00:34:16.804Z,13.54
2023-05-25T00:39:10.559Z,13.65
2023-05-25T00:44:05.514Z,13.32
2023-05-25T00:48:58.889Z,13.45
2023-05-25T00:53:52.294Z,13.69
2023-05-25T00:58:51.410Z,13.65
2023-05-25T01:03:53.791Z,13.64
2023-05-25T01:08:56.922Z,13.68
2023-05-25T01:13:53.832Z,13.57
2023-05-25T01:18:48.931Z,13.50
2023-05-25T01:23:54.319Z,13.42
2023-05-25T01:28:53.970Z,13.29
2023-05-25T01:33:49.621Z,13.58
2023-05-25T01:38:44.396Z,13.33
2023-05-25T01:43:37.761Z,13.25
2023-05-25T01:48:41.765Z,13.31
2023-05-25T01:53:44.891Z,13.30
2023-05-25T01:58:43.569Z,13.21
2023-05-25T02:03:37.625Z,13.06
2023-05-25T02:08:31.079Z,13.04
2023-05-25T02:13:24.498Z,12.75
2023-05-25T02:18:19.280Z,12.59
2023-05-25T02:23:12.784Z,12.48
2023-05-25T02:28:06.779Z,12.78
2023-05-25T02:33:02.407Z,12.57
2023-05-25T02:37:57.258Z,12.51
2023-05-25T02:42:50.615Z,12.70
2023-05-25T02:47:44.043Z,12.79
2023-05-25T02:52:37.453Z,12.86
2023-05-25T02:57:32.123Z,12.73
2023-05-25T03:02:26.087Z,12.70
2023-05-25T03:07:22.489Z,12.70
2023-05-25T03:12:16.130Z,12.46
2023-05-25T03:17:10.834Z,12.46
2023-05-25T03:22:05.090Z,12.47
2023-05-25T03:26:58.364Z,12.52
2023-05-25T03:31:51.834Z,12.68
2023-05-25T03:36:47.651Z,12.35
2023-05-25T03:41:40.961Z,12.44
2023-05-25T03:46:34.301Z,12.40
2023-05-25T03:51:28.075Z,12.52
2023-05-25T03:56:23.141Z,12.50
2023-05-25T04:01:16.738Z,12.43
2023-05-25T04:06:10.199Z,12.39
2023-05-25T04:11:03.506Z,12.56
2023-05-25T04:15:58.336Z,12.61
2023-05-25T04:20:51.855Z,12.50
2023-05-25T04:25:45.601Z,12.68
2023-05-25T04:30:39.740Z,12.69
2023-05-25T04:35:34.564Z,12.61
2023-05-25T04:40:28.103Z,12.51
2023-05-25T04:45:21.522Z,12.66
2023-05-25T04:50:15.453Z,12.88
2023-05-25T04:55:11.013Z,12.87
2023-05-25T05:00:05.914Z,12.90
2023-05-25T05:04:59.262Z,13.20
2023-05-25T05:09:52.556Z,13.34
2023-05-25T05:14:47.549Z,13.32
2023-05-25T05:19:40.948Z,13.41
2023-05-25T05:24:34.321Z,13.43
2023-05-25T05:29:28.725Z,13.35
2023-05-25T05:34:23.394Z,13.42
2023-05-25T05:39:16.728Z,13.53
2023-05-25T05:44:10.179Z,13.53
2023-05-25T05:49:03.869Z,13.65
2023-05-25T05:53:58.542Z,13.54
2023-05-25T05:58:53.625Z,13.68
2023-05-25T06:03:47.628Z,13.70
2023-05-25T06:08:41.697Z,13.55
2023-05-25T06:13:36.489Z,13.76
2023-05-25T06:18:29.861Z,13.68
2023-05-25T06:23:28.782Z,13.73
2023-05-25T06:28:22.136Z,13.80
2023-05-25T06:33:16.884Z,14.01
2023-05-25T06:38:11.590Z,14.22
2023-05-25T06:43:05.033Z,14.16
2023-05-25T06:47:58.623Z,14.22
2023-05-25T06:52:53.371Z,14.24
2023-05-25T06:57:46.993Z,14.50
2023-05-25T07:02:40.667Z,14.72
2023-05-25T07:07:34.263Z,15.02
2023-05-25T07:12:29.003Z,14.97
2023-05-25T07:17:22.470Z,15.06
2023-05-25T07:22:17.077Z,15.13
2023-05-25T07:27:10.527Z,15.04
2023-05-25T07:32:06.046Z,15.36
2023-05-25T07:36:59.492Z,15.42
2023-05-25T07:41:52.903Z,15.36
2023-05-25T07:46:48.964Z,15.15
2023-05-25T07:51:44.831Z,15.29
2023-05-25T07:56:38.251Z,15.27
2023-05-25T08:01:31.814Z,15.70
2023-05-25T08:06:25.435Z,15.83
2023-05-25T08:11:26.411Z,15.75
2023-05-25T08:16:20.041Z,16.32
2023-05-25T08:21:13.443Z,16.37
2023-05-25T08:26:20.407Z,17.21
2023-05-25T08:31:21.729Z,17.06
2023-05-25T08:36:16.150Z,16.81
2023-05-25T08:41:09.628Z,16.86
2023-05-25T08:46:07.903Z,17.37
2023-05-25T08:51:10.385Z,16.91
2023-05-25T08:56:08.743Z,17.20
2023-05-25T09:01:09.389Z,17.12
2023-05-25T09:06:04.444Z,16.81
2023-05-25T09:10:58.677Z,16.96
2023-05-25T09:15:53.215Z,16.95
2023-05-25T09:20:47.624Z,16.62
2023-05-25T09:25:43.193Z,17.06
2023-05-25T09:30:37.587Z,16.90
2023-05-25T09:35:31.472Z,17.76
2023-05-25T09:40:25.020Z,18.63
2023-05-25T09:45:19.829Z,18.57
2023-05-25T09:50:13.460Z,18.47
2023-05-25T09:55:12.660Z,18.71
2023-05-25T10:00:08.899Z,19.01
2023-05-25T10:05:03.789Z,18.49
2023-05-25T10:10:02.871Z,18.17
2023-05-25T10:14:59.405Z,18.73
2023-05-25T10:19:59.095Z,19.30
2023-05-25T10:25:01.179Z,19.55
2023-05-25T10:29:57.115Z,19.88
2023-05-25T10:34:53.527Z,19.62
2023-05-25T10:39:49.273Z,19.21
2023-05-25T10:44:45.306Z,19.45
2023-05-25T10:49:55.478Z,19.62
2023-05-25T10:54:49.786Z,19.82
2023-05-25T10:59:45.693Z,20.26
2023-05-25T11:04:39.399Z,20.31
2023-05-25T11:09:32.886Z,19.87
2023-05-25T11:14:31.698Z,19.63
2023-05-25T11:19:39.521Z,19.83
2023-05-25T11:24:32.887Z,20.20
2023-05-25T11:29:27.340Z,20.57
2023-05-25T11:34:25.979Z,20.57
2023-05-25T11:39:23.659Z,20.86
2023-05-25T11:44:17.243Z,20.88
2023-05-25T11:49:10.811Z,20.79
2023-05-25T11:54:04.377Z,20.71
2023-05-25T11:58:59.262Z,20.28
2023-05-25T12:03:57.017Z,20.47
2023-05-25T12:08:50.577Z,20.42
2023-05-25T12:13:43.985Z,20.54
2023-05-25T12:18:38.941Z,20.58
2023-05-25T12:23:32.354Z,20.28
2023-05-25T12:28:26.068Z,20.32
2023-05-25T12:33:19.412Z,20.37
2023-05-25T12:38:15.475Z,20.39
2023-05-25T12:43:09.060Z,20.28
2023-05-25T12:48:02.619Z,20.25
2023-05-25T12:53:03.560Z,20.35
2023-05-25T12:58:01.498Z,20.07
2023-05-25T13:02:55.731Z,20.18
2023-05-25T13:07:49.314Z,20.33
2023-05-25T13:12:42.892Z,20.40
2023-05-25T13:17:37.706Z,20.50
2023-05-25T13:22:31.117Z,20.40
2023-05-25T13:27:25.583Z,20.31
2023-05-25T13:32:19.240Z,20.53
2023-05-25T13:37:14.008Z,20.48
2023-05-25T13:42:07.772Z,20.60
2023-05-25T13:47:01.208Z,20.73
2023-05-25T13:51:54.536Z,20.48
2023-05-25T13:56:49.245Z,20.58
2023-05-25T14:01:42.688Z,20.56
2023-05-25T14:06:39.064Z,20.64
2023-05-25T14:11:32.443Z,20.57
2023-05-25T14:16:27.319Z,20.32
2023-05-25T14:21:20.822Z,20.54
2023-05-25T14:26:14.173Z,20.64
2023-05-25T14:31:07.545Z,20.76
2023-05-25T14:36:02.264Z,20.79
2023-05-25T14:40:55.573Z,20.82
2023-05-25T14:45:48.899Z,20.90
2023-05-25T14:50:44.400Z,20.70
2023-05-25T14:55:39.293Z,20.76
2023-05-25T15:00:32.594Z,20.88
2023-05-25T15:05:25.928Z,20.95
2023-05-25T15:10:19.423Z,20.81
2023-05-25T15:15:15.309Z,20.82
2023-05-25T15:20:09.753Z,20.75
2023-05-25T15:25:03.154Z,20.70
2023-05-25T15:29:56.478Z,20.64
2023-05-25T15:34:51.195Z,20.75
2023-05-25T15:39:44.516Z,20.72
2023-05-25T15:44:37.839Z,20.76
2023-05-25T15:49:32.176Z,20.63
2023-05-25T15:54:26.859Z,20.70
2023-05-25T15:59:20.185Z,20.75
2023-05-25T16:04:13.636Z,20.62
2023-05-25T16:09:07.185Z,20.52
2023-05-25T16:14:01.863Z,20.41
2023-05-25T16:18:55.258Z,20.53
2023-05-25T16:23:48.673Z,20.55
2023-05-25T16:28:41.921Z,20.64
2023-05-25T16:33:36.556Z,20.47
2023-05-25T16:38:29.801Z,20.25
2023-05-25T16:43:25.145Z,20.42
2023-05-25T16:48:20.312Z,20.65
2023-05-25T16:53:16.482Z,20.58
2023-05-25T16:58:09.764Z,20.50
2023-05-25T17:03:03.323Z,20.58
2023-05-25T17:07:56.767Z,20.63
2023-05-25T17:13:08.668Z,20.58
2023-05-25T17:18:02.065Z,20.65
2023-05-25T17:22:55.987Z,20.70
2023-05-25T17:27:49.346Z,20.56
2023-05-25T17:32:44.086Z,20.57
2023-05-25T17:37:37.452Z,20.47
2023-05-25T17:42:30.769Z,20.33
2023-05-25T17:47:25.559Z,20.51
2023-05-25T17:52:20.524Z,20.35
2023-05-25T17:57:13.880Z,20.35
2023-05-25T18:02:07.428Z,20.17
2023-05-25T18:07:00.824Z,20.17
2023-05-25T18:11:56.160Z,20.06
2023-05-25T18:16:49.543Z,19.95
2023-05-25T18:21:42.934Z,19.95
2023-05-25T18:26:36.722Z,19.89
2023-05-25T18:31:33.476Z,19.75
2023-05-25T18:36:27.146Z,19.60
2023-05-25T18:41:21.637Z,19.49
2023-05-25T18:46:15.253Z,19.43
2023-05-25T18:51:10.454Z,19.25
2023-05-25T18:56:03.900Z,19.18
2023-05-25T19:00:57.272Z,18.97
2023-05-25T19:05:50.820Z,18.94
2023-05-25T19:10:45.700Z,18.88
2023-05-25T19:15:39.031Z,18.90
2023-05-25T19:20:33.688Z,18.91
2023-05-25T19:25:27.031Z,18.89
2023-05-25T19:30:21.999Z,18.78
2023-05-25T19:35:15.363Z,18.68
2023-05-25T19:40:11.126Z,18.58
2023-05-25T19:45:05.673Z,18.59
2023-05-25T19:50:00.510Z,18.56
2023-05-25T19:54:53.832Z,18.55
2023-05-25T19:59:47.377Z,18.51
2023-05-25T20:04:41.493Z,18.49
2023-05-25T20:09:38.562Z,18.27
2023-05-25T20:14:33.652Z,17.97
2023-05-25T20:19:27.002Z,17.95
2023-05-25T20:24:20.333Z,17.76
2023-05-25T20:29:15.759Z,17.60
2023-05-25T20:34:09.433Z,17.41
2023-05-25T20:39:03.257Z,17.38
2023-05-25T20:43:56.715Z,17.52
2023-05-25T20:48:52.113Z,17.38
2023-05-25T20:53:45.749Z,17.27
2023-05-25T20:58:39.755Z,17.19
2023-05-25T21:03:33.320Z,17.06
2023-05-25T21:08:28.134Z,16.93
2023-05-25T21:13:21.441Z,16.99
2023-05-25T21:18:17.666Z,16.87
2023-05-25T21:23:11.585Z,16.78
2023-05-25T21:28:06.948Z,16.86
2023-05-25T21:33:00.337Z,16.90
2023-05-25T21:37:53.740Z,16.82
2023-05-25T21:42:48.666Z,16.69
2023-05-25T21:47:45.308Z,16.56
2023-05-25T21:52:38.997Z,16.69
2023-05-25T21:57:32.572Z,16.57
2023-05-25T22:02:26.335Z,16.56
2023-05-25T22:20:28.603Z,16.06
2023-05-25T22:25:21.942Z,16.08
2023-05-25T22:30:15.527Z,16.19
2023-05-25T22:35:09.794Z,16.09
2023-05-25T22:40:05.875Z,16.17
2023-05-25T22:44:59.182Z,16.21
2023-05-25T22:49:52.523Z,16.48
2023-05-25T22:54:45.854Z,16.27
2023-05-25T22:59:40.671Z,16.26
2023-05-25T23:04:36.674Z,15.97
2023-05-25T23:09:30.010Z,16.04
2023-05-25T23:14:23.288Z,16.18
2023-05-25T23:19:18.116Z,16.34
2023-05-25T23:24:11.431Z,15.98
2023-05-25T23:29:04.875Z,15.95
2023-05-25T23:33:58.319Z,15.88
2023-05-25T23:38:53.201Z,15.94
2023-05-25T23:43:47.335Z,16.15
2023-05-25T23:48:40.621Z,15.83
2023-05-25T23:53:33.968Z,15.78
2023-05-25T23:58:28.681Z,15.68
